createdAt,value
2023-03-05T00:00:16.170Z,1010.60
2023-03-05T00:01:16.154Z,1010.58
2023-03-05T00:02:17.094Z,1010.53
2023-03-05T00:03:16.142Z,1010.54
2023-03-05T00:04:16.107Z,1010.57
2023-03-05T00:05:37.099Z,1010.54
2023-03-05T00:06:16.078Z,1010.53
2023-03-05T00:07:16.068Z,1010.49
2023-03-05T00:08:16.052Z,1010.48
2023-03-05T00:09:16.041Z,1010.44
2023-03-05T00:10:16.033Z,1010.41
2023-03-05T00:11:37.018Z,1010.45
2023-03-05T00:12:16.002Z,1010.39
2023-03-05T00:13:15.993Z,1010.38
2023-03-05T00:14:15.975Z,1010.38
2023-03-05T00:15:16.090Z,1010.34
2023-03-05T00:16:16.014Z,1010.36
2023-03-05T00:17:36.944Z,1010.30
2023-03-05T00:18:15.924Z,1010.27
2023-03-05T00:19:15.911Z,1010.29
2023-03-05T00:20:15.905Z,1010.27
2023-03-05T00:21:15.896Z,1010.22
2023-03-05T00:22:15.932Z,1010.23
2023-03-05T00:23:36.865Z,1010.22
2023-03-05T00:24:15.844Z,1010.20
2023-03-05T00:25:15.844Z,1010.14
2023-03-05T00:26:15.828Z,1010.13
2023-03-05T00:27:15.807Z,1010.13
2023-03-05T00:28:15.793Z,1010.10
2023-03-05T00:29:36.787Z,1010.10
2023-03-05T00:30:15.773Z,1010.07
2023-03-05T00:31:15.873Z,1010.10
2023-03-05T00:32:15.775Z,1010.11
2023-03-05T00:33:15.739Z,1010.06
2023-03-05T00:34:15.722Z,1010.05
2023-03-05T00:35:36.735Z,1010.05
2023-03-05T00:36:15.699Z,1010.04
2023-03-05T00:37:15.686Z,1010.02
2023-03-05T00:38:15.674Z,1010.03
2023-03-05T00:39:15.666Z,1010.06
2023-03-05T00:40:15.670Z,1009.99
2023-03-05T00:41:36.647Z,1010.03
2023-03-05T00:42:15.620Z,1009.99
2023-03-05T00:43:15.622Z,1009.98
2023-03-05T00:44:15.605Z,1009.98
2023-03-05T00:45:15.585Z,1009.94
2023-03-05T00:46:15.614Z,1009.94
2023-03-05T00:47:36.593Z,1009.95
2023-03-05T00:48:15.545Z,1009.95
2023-03-05T00:49:15.532Z,1009.92
2023-03-05T00:50:15.517Z,1009.91
2023-03-05T00:51:15.534Z,1009.91
2023-03-05T00:52:15.494Z,1009.88
2023-03-05T00:53:36.493Z,1009.84
2023-03-05T00:54:15.464Z,1009.85
2023-03-05T00:55:15.460Z,1009.91
2023-03-05T00:56:15.441Z,1009.84
2023-03-05T00:57:15.428Z,1009.83
2023-03-05T00:58:15.411Z,1009.79
2023-03-05T00:59:36.412Z,1009.80
2023-03-05T01:00:15.384Z,1009.83
2023-03-05T01:01:15.376Z,1009.74
2023-03-05T01:02:15.359Z,1009.73
2023-03-05T01:03:15.346Z,1009.68
2023-03-05T01:04:15.327Z,1009.72
2023-03-05T01:05:36.463Z,1009.70
2023-03-05T01:06:15.400Z,1009.69
2023-03-05T01:07:15.285Z,1009.66
2023-03-05T01:08:15.275Z,1009.69
2023-03-05T01:09:15.261Z,1009.67
2023-03-05T01:10:15.244Z,1009.67
2023-03-05T01:11:36.250Z,1009.63
2023-03-05T01:12:15.216Z,1009.64
2023-03-05T01:13:15.274Z,1009.60
2023-03-05T01:14:15.185Z,1009.64
2023-03-05T01:15:15.173Z,1009.64
2023-03-05T01:16:15.188Z,1009.62
2023-03-05T01:17:36.159Z,1009.65
2023-03-05T01:18:15.136Z,1009.61
2023-03-05T01:19:15.122Z,1009.59
2023-03-05T01:20:15.152Z,1009.56
2023-03-05T01:21:15.101Z,1009.64
2023-03-05T01:22:15.088Z,1009.58
2023-03-05T01:23:36.069Z,1009.58
2023-03-05T01:24:15.048Z,1009.56
2023-03-05T01:25:15.046Z,1009.55
2023-03-05T01:26:15.030Z,1009.59
2023-03-05T01:27:15.018Z,1009.49
2023-03-05T01:28:15.019Z,1009.51
2023-03-05T01:29:35.993Z,1009.50
2023-03-05T01:30:14.971Z,1009.46
2023-03-05T01:31:15.005Z,1009.51
2023-03-05T01:32:15.004Z,1009.49
2023-03-05T01:33:14.932Z,1009.44
2023-03-05T01:34:14.915Z,1009.45
2023-03-05T01:35:35.955Z,1009.45
2023-03-05T01:36:14.909Z,1009.42
2023-03-05T01:37:14.886Z,1009.42
2023-03-05T01:38:14.864Z,1009.44
2023-03-05T01:39:14.854Z,1009.38
2023-03-05T01:40:14.838Z,1009.37
2023-03-05T01:41:35.863Z,1009.38
2023-03-05T01:42:14.837Z,1009.39
2023-03-05T01:43:14.805Z,1009.38
2023-03-05T01:44:14.795Z,1009.41
2023-03-05T01:45:14.775Z,1009.39
2023-03-05T01:46:14.768Z,1009.35
2023-03-05T01:47:35.774Z,1009.34
2023-03-05T01:48:14.749Z,1009.33
2023-03-05T01:49:14.747Z,1009.35
2023-03-05T01:50:14.711Z,1009.38
2023-03-05T01:51:14.700Z,1009.35
2023-03-05T01:52:14.706Z,1009.30
2023-03-05T01:53:35.684Z,1009.35
2023-03-05T01:54:14.654Z,1009.32
2023-03-05T01:55:14.645Z,1009.31
2023-03-05T01:56:14.635Z,1009.30
2023-03-05T01:57:14.608Z,1009.31
2023-03-05T01:58:14.600Z,1009.36
2023-03-05T01:59:35.586Z,1009.36
2023-03-05T02:00:14.576Z,1009.32
2023-03-05T02:01:14.629Z,1009.32
2023-03-05T02:02:14.546Z,1009.31
2023-03-05T02:03:14.550Z,1009.26
2023-03-05T02:04:14.569Z,1009.29
2023-03-05T02:05:35.508Z,1009.31
2023-03-05T02:06:14.489Z,1009.27
2023-03-05T02:07:14.477Z,1009.23
2023-03-05T02:08:14.464Z,1009.23
2023-03-05T02:09:14.451Z,1009.23
2023-03-05T02:10:14.439Z,1009.22
2023-03-05T02:11:35.431Z,1009.23
2023-03-05T02:12:14.421Z,1009.16
2023-03-05T02:13:14.393Z,1009.17
2023-03-05T02:14:14.385Z,1009.16
2023-03-05T02:15:14.375Z,1009.17
2023-03-05T02:16:14.397Z,1009.19
2023-03-05T02:17:35.498Z,1009.19
2023-03-05T02:18:14.350Z,1009.23
2023-03-05T02:19:14.313Z,1009.16
2023-03-05T02:20:14.301Z,1009.14
2023-03-05T02:21:14.286Z,1009.14
2023-03-05T02:22:14.274Z,1009.13
2023-03-05T02:23:35.259Z,1009.11
2023-03-05T02:24:14.253Z,1009.01
2023-03-05T02:25:14.230Z,1009.09
2023-03-05T02:26:14.221Z,1009.12
2023-03-05T02:27:14.201Z,1009.07
2023-03-05T02:28:14.199Z,1009.05
2023-03-05T02:29:35.191Z,1009.03
2023-03-05T02:30:14.165Z,1009.09
2023-03-05T02:31:14.148Z,1009.04
2023-03-05T02:32:14.332Z,1009.07
2023-03-05T02:33:14.123Z,1009.00
2023-03-05T02:34:14.124Z,1009.03
2023-03-05T02:35:35.150Z,1008.98
2023-03-05T02:36:14.088Z,1008.98
2023-03-05T02:37:14.072Z,1008.98
2023-03-05T02:38:14.063Z,1008.98
2023-03-05T02:39:14.040Z,1008.90
2023-03-05T02:40:14.028Z,1008.89
2023-03-05T02:41:35.021Z,1008.95
2023-03-05T02:42:14.000Z,1008.85
2023-03-05T02:43:13.987Z,1008.87
2023-03-05T02:44:13.972Z,1008.86
2023-03-05T02:45:13.955Z,1008.81
2023-03-05T02:46:13.995Z,1008.83
2023-03-05T02:47:34.930Z,1008.77
2023-03-05T02:48:13.919Z,1008.84
2023-03-05T02:49:13.908Z,1008.83
2023-03-05T02:50:13.889Z,1008.78
2023-03-05T02:51:13.879Z,1008.77
2023-03-05T02:52:13.865Z,1008.79
2023-03-05T02:53:34.849Z,1008.73
2023-03-05T02:54:13.836Z,1008.72
2023-03-05T02:55:13.825Z,1008.70
2023-03-05T02:56:13.806Z,1008.75
2023-03-05T02:57:13.793Z,1008.74
2023-03-05T02:58:13.779Z,1008.70
2023-03-05T02:59:34.790Z,1008.70
2023-03-05T03:00:13.802Z,1008.71
2023-03-05T03:01:13.776Z,1008.67
2023-03-05T03:02:13.781Z,1008.66
2023-03-05T03:03:13.789Z,1008.69
2023-03-05T03:04:13.699Z,1008.66
2023-03-05T03:05:34.698Z,1008.61
2023-03-05T03:06:13.678Z,1008.64
2023-03-05T03:07:13.653Z,1008.62
2023-03-05T03:08:13.645Z,1008.65
2023-03-05T03:09:13.628Z,1008.65
2023-03-05T03:10:13.621Z,1008.62
2023-03-05T03:11:34.601Z,1008.63
2023-03-05T03:12:13.592Z,1008.60
2023-03-05T03:13:13.577Z,1008.65
2023-03-05T03:14:13.569Z,1008.61
2023-03-05T03:15:13.541Z,1008.59
2023-03-05T03:16:13.571Z,1008.59
2023-03-05T03:17:34.524Z,1008.55
2023-03-05T03:18:13.504Z,1008.57
2023-03-05T03:19:13.491Z,1008.53
2023-03-05T03:20:13.481Z,1008.57
2023-03-05T03:21:13.460Z,1008.53
2023-03-05T03:22:13.454Z,1008.50
2023-03-05T03:23:34.445Z,1008.52
2023-03-05T03:24:13.431Z,1008.48
2023-03-05T03:25:13.431Z,1008.48
2023-03-05T03:26:13.396Z,1008.49
2023-03-05T03:27:13.379Z,1008.49
2023-03-05T03:28:13.384Z,1008.46
2023-03-05T03:29:34.360Z,1008.47
2023-03-05T03:30:13.440Z,1008.47
2023-03-05T03:31:13.458Z,1008.51
2023-03-05T03:32:13.375Z,1008.46
2023-03-05T03:33:13.299Z,1008.43
2023-03-05T03:34:13.297Z,1008.43
2023-03-05T03:35:34.324Z,1008.46
2023-03-05T03:36:13.269Z,1008.42
2023-03-05T03:37:13.246Z,1008.41
2023-03-05T03:38:13.256Z,1008.40
2023-03-05T03:39:13.220Z,1008.38
2023-03-05T03:40:13.213Z,1008.39
2023-03-05T03:41:34.198Z,1008.36
2023-03-05T03:42:13.187Z,1008.37
2023-03-05T03:43:13.165Z,1008.34
2023-03-05T03:44:13.155Z,1008.33
2023-03-05T03:45:13.172Z,1008.35
2023-03-05T03:46:13.195Z,1008.32
2023-03-05T03:47:34.114Z,1008.32
2023-03-05T03:48:13.094Z,1008.28
2023-03-05T03:49:13.087Z,1008.31
2023-03-05T03:50:13.072Z,1008.29
2023-03-05T03:51:13.054Z,1008.27
2023-03-05T03:52:13.043Z,1008.25
2023-03-05T03:53:34.035Z,1008.21
2023-03-05T03:54:13.010Z,1008.24
2023-03-05T03:55:13.002Z,1008.24
2023-03-05T03:56:12.986Z,1008.21
2023-03-05T03:57:12.977Z,1008.22
2023-03-05T03:58:12.959Z,1008.22
2023-03-05T03:59:33.958Z,1008.19
2023-03-05T04:00:12.931Z,1008.19
2023-03-05T04:01:12.922Z,1008.19
2023-03-05T04:02:13.037Z,1008.17
2023-03-05T04:03:12.891Z,1008.19
2023-03-05T04:04:12.989Z,1008.16
2023-03-05T04:05:33.870Z,1008.12
2023-03-05T04:06:12.850Z,1008.12
2023-03-05T04:07:12.845Z,1008.12
2023-03-05T04:08:12.825Z,1008.10
2023-03-05T04:09:12.813Z,1008.09
2023-03-05T04:10:12.797Z,1008.12
2023-03-05T04:11:33.794Z,1008.08
2023-03-05T04:12:12.772Z,1008.11
2023-03-05T04:13:12.765Z,1008.07
2023-03-05T04:14:12.741Z,1008.05
2023-03-05T04:15:12.730Z,1008.09
2023-03-05T04:16:12.731Z,1008.03
2023-03-05T04:17:33.715Z,1008.04
2023-03-05T04:18:12.688Z,1008.04
2023-03-05T04:19:12.674Z,1008.00
2023-03-05T04:20:12.661Z,1008.02
2023-03-05T04:21:12.653Z,1007.91
2023-03-05T04:22:12.629Z,1007.99
2023-03-05T04:23:33.621Z,1007.97
2023-03-05T04:24:12.613Z,1007.97
2023-03-05T04:25:12.592Z,1007.98
2023-03-05T04:26:12.590Z,1007.99
2023-03-05T04:27:12.563Z,1007.94
2023-03-05T04:28:12.548Z,1007.95
2023-03-05T04:29:33.591Z,1007.99
2023-03-05T04:30:12.632Z,1007.93
2023-03-05T04:31:12.608Z,1007.88
2023-03-05T04:32:12.553Z,1007.88
2023-03-05T04:33:12.476Z,1007.89
2023-03-05T04:34:12.461Z,1007.89
2023-03-05T04:35:33.508Z,1007.83
2023-03-05T04:36:12.429Z,1007.88
2023-03-05T04:37:12.419Z,1007.84
2023-03-05T04:38:12.401Z,1007.87
2023-03-05T04:39:12.420Z,1007.84
2023-03-05T04:40:12.378Z,1007.86
2023-03-05T04:41:33.383Z,1007.83
2023-03-05T04:42:12.353Z,1007.84
2023-03-05T04:43:12.332Z,1007.83
2023-03-05T04:44:12.317Z,1007.84
2023-03-05T04:45:12.302Z,1007.83
2023-03-05T04:46:12.402Z,1007.77
2023-03-05T04:47:33.276Z,1007.85
2023-03-05T04:48:12.261Z,1007.83
2023-03-05T04:49:12.256Z,1007.78
2023-03-05T04:50:12.236Z,1007.76
2023-03-05T04:51:12.213Z,1007.77
2023-03-05T04:52:12.208Z,1007.73
2023-03-05T04:53:33.195Z,1007.78
2023-03-05T04:54:12.197Z,1007.75
2023-03-05T04:55:12.163Z,1007.75
2023-03-05T04:56:12.155Z,1007.74
2023-03-05T04:57:12.136Z,1007.74
2023-03-05T04:58:12.120Z,1007.73
2023-03-05T04:59:33.107Z,1007.70
2023-03-05T05:00:12.090Z,1007.72
2023-03-05T05:01:12.073Z,1007.73
2023-03-05T05:02:12.065Z,1007.69
2023-03-05T05:03:12.085Z,1007.70
2023-03-05T05:04:12.044Z,1007.69
2023-03-05T05:05:33.025Z,1007.74
2023-03-05T05:06:12.015Z,1007.69
2023-03-05T05:07:11.994Z,1007.66
2023-03-05T05:08:11.984Z,1007.67
2023-03-05T05:09:11.968Z,1007.70
2023-03-05T05:10:11.949Z,1007.68
2023-03-05T05:11:32.937Z,1007.73
2023-03-05T05:12:11.933Z,1007.69
2023-03-05T05:13:11.913Z,1007.66
2023-03-05T05:14:11.896Z,1007.68
2023-03-05T05:15:11.882Z,1007.74
2023-03-05T05:16:11.945Z,1007.70
2023-03-05T05:17:32.885Z,1007.70
2023-03-05T05:18:11.837Z,1007.71
2023-03-05T05:19:11.862Z,1007.65
2023-03-05T05:20:11.809Z,1007.65
2023-03-05T05:21:11.800Z,1007.64
2023-03-05T05:22:11.781Z,1007.68
2023-03-05T05:23:32.767Z,1007.66
2023-03-05T05:24:11.776Z,1007.66
2023-03-05T05:25:11.749Z,1007.64
2023-03-05T05:26:11.723Z,1007.66
2023-03-05T05:27:11.706Z,1007.65
2023-03-05T05:28:11.701Z,1007.68
2023-03-05T05:29:32.686Z,1007.65
2023-03-05T05:30:11.674Z,1007.65
2023-03-05T05:31:11.657Z,1007.66
2023-03-05T05:32:11.679Z,1007.65
2023-03-05T05:33:11.624Z,1007.65
2023-03-05T05:34:11.612Z,1007.66
2023-03-05T05:35:32.638Z,1007.63
2023-03-05T05:36:11.585Z,1007.64
2023-03-05T05:37:11.569Z,1007.64
2023-03-05T05:38:11.558Z,1007.61
2023-03-05T05:39:11.543Z,1007.65
2023-03-05T05:40:11.531Z,1007.62
2023-03-05T05:41:32.526Z,1007.65
2023-03-05T05:42:11.506Z,1007.64
2023-03-05T05:43:11.499Z,1007.63
2023-03-05T05:44:11.475Z,1007.66
2023-03-05T05:45:11.508Z,1007.67
2023-03-05T05:46:11.567Z,1007.66
2023-03-05T05:47:32.438Z,1007.70
2023-03-05T05:48:11.418Z,1007.69
2023-03-05T05:49:11.404Z,1007.71
2023-03-05T05:50:11.392Z,1007.73
2023-03-05T05:51:11.374Z,1007.76
2023-03-05T05:52:11.362Z,1007.78
2023-03-05T05:53:32.350Z,1007.77
2023-03-05T05:54:11.382Z,1007.77
2023-03-05T05:55:11.331Z,1007.72
2023-03-05T05:56:11.391Z,1007.75
2023-03-05T05:57:11.288Z,1007.71
2023-03-05T05:58:11.279Z,1007.72
2023-03-05T05:59:32.265Z,1007.67
2023-03-05T06:00:11.249Z,1007.72
2023-03-05T06:01:11.295Z,1007.71
2023-03-05T06:02:11.319Z,1007.74
2023-03-05T06:03:11.246Z,1007.70
2023-03-05T06:04:11.193Z,1007.71
2023-03-05T06:05:32.221Z,1007.69
2023-03-05T06:06:11.175Z,1007.72
2023-03-05T06:07:11.148Z,1007.69
2023-03-05T06:08:11.138Z,1007.67
2023-03-05T06:09:11.126Z,1007.67
2023-03-05T06:10:11.106Z,1007.68
2023-03-05T06:11:32.250Z,1007.66
2023-03-05T06:12:11.083Z,1007.64
2023-03-05T06:13:11.071Z,1007.64
2023-03-05T06:14:11.052Z,1007.61
2023-03-05T06:15:11.036Z,1007.57
2023-03-05T06:16:11.110Z,1007.60
2023-03-05T06:17:32.020Z,1007.55
2023-03-05T06:18:10.996Z,1007.58
2023-03-05T06:19:10.983Z,1007.61
2023-03-05T06:20:10.966Z,1007.59
2023-03-05T06:21:10.954Z,1007.62
2023-03-05T06:22:10.965Z,1007.56
2023-03-05T06:23:31.968Z,1007.61
2023-03-05T06:24:10.912Z,1007.60
2023-03-05T06:25:10.892Z,1007.65
2023-03-05T06:26:10.888Z,1007.66
2023-03-05T06:27:10.894Z,1007.66
2023-03-05T06:28:10.856Z,1007.64
2023-03-05T06:29:31.839Z,1007.63
2023-03-05T06:30:10.826Z,1007.67
2023-03-05T06:31:10.878Z,1007.70
2023-03-05T06:32:10.833Z,1007.72
2023-03-05T06:33:10.794Z,1007.68
2023-03-05T06:34:10.797Z,1007.67
2023-03-05T06:35:31.790Z,1007.67
2023-03-05T06:36:10.761Z,1007.68
2023-03-05T06:37:10.723Z,1007.64
2023-03-05T06:38:10.732Z,1007.64
2023-03-05T06:39:10.697Z,1007.66
2023-03-05T06:40:10.687Z,1007.64
2023-03-05T06:41:31.688Z,1007.61
2023-03-05T06:42:10.660Z,1007.64
2023-03-05T06:43:10.672Z,1007.54
2023-03-05T06:44:10.630Z,1007.60
2023-03-05T06:45:10.613Z,1007.55
2023-03-05T06:46:10.635Z,1007.54
2023-03-05T06:47:31.600Z,1007.56
2023-03-05T06:48:10.578Z,1007.54
2023-03-05T06:49:10.569Z,1007.54
2023-03-05T06:50:10.551Z,1007.56
2023-03-05T06:51:10.530Z,1007.53
2023-03-05T06:52:10.519Z,1007.55
2023-03-05T06:53:31.509Z,1007.58
2023-03-05T06:54:10.493Z,1007.52
2023-03-05T06:55:10.625Z,1007.56
2023-03-05T06:56:10.468Z,1007.62
2023-03-05T06:57:10.511Z,1007.58
2023-03-05T06:58:10.443Z,1007.55
2023-03-05T06:59:31.431Z,1007.53
2023-03-05T07:00:10.420Z,1007.56
2023-03-05T07:01:10.454Z,1007.60
2023-03-05T07:02:10.476Z,1007.61
2023-03-05T07:03:10.402Z,1007.56
2023-03-05T07:04:10.367Z,1007.53
2023-03-05T07:05:33.255Z,1007.56
2023-03-05T07:06:10.338Z,1007.58
2023-03-05T07:07:10.331Z,1007.58
2023-03-05T07:08:10.318Z,1007.62
2023-03-05T07:09:10.327Z,1007.60
2023-03-05T07:10:10.278Z,1007.63
2023-03-05T07:11:31.264Z,1007.60
2023-03-05T07:12:10.252Z,1007.65
2023-03-05T07:13:10.236Z,1007.61
2023-03-05T07:14:10.259Z,1007.59
2023-03-05T07:15:10.208Z,1007.69
2023-03-05T07:16:10.255Z,1007.66
2023-03-05T07:17:31.192Z,1007.59
2023-03-05T07:18:10.173Z,1007.63
2023-03-05T07:19:10.177Z,1007.64
2023-03-05T07:20:10.187Z,1007.65
2023-03-05T07:21:17.292Z,1007.70
2023-03-05T07:23:03.215Z,1007.67
2023-03-05T07:24:03.211Z,1007.65
2023-03-05T07:26:07.339Z,1007.69
2023-03-05T07:27:07.309Z,1007.73
2023-03-05T07:29:11.131Z,1007.68
2023-03-05T07:30:11.075Z,1007.75
2023-03-05T07:32:04.067Z,1007.73
2023-03-05T07:33:04.116Z,1007.79
2023-03-05T07:34:56.939Z,1007.76
2023-03-05T07:35:56.996Z,1007.72
2023-03-05T07:38:00.906Z,1007.79
2023-03-05T07:39:00.880Z,1007.79
2023-03-05T07:40:53.968Z,1007.73
2023-03-05T07:41:53.952Z,1007.75
2023-03-05T07:43:57.994Z,1007.73
2023-03-05T07:44:57.980Z,1007.80
2023-03-05T07:46:51.674Z,1007.72
2023-03-05T07:47:52.558Z,1007.72
2023-03-05T07:49:54.883Z,1007.73
2023-03-05T07:50:54.862Z,1007.67
2023-03-05T07:52:47.841Z,1007.76
2023-03-05T07:53:47.827Z,1007.78
2023-03-05T07:55:52.258Z,1007.76
2023-03-05T07:56:51.800Z,1007.76
2023-03-05T07:58:55.750Z,1007.73
2023-03-05T07:59:55.727Z,1007.74
2023-03-05T08:01:48.876Z,1007.80
2023-03-05T08:02:48.851Z,1007.79
2023-03-05T08:04:41.763Z,1007.76
2023-03-05T08:05:41.744Z,1007.82
2023-03-05T08:07:45.719Z,1007.79
2023-03-05T08:08:45.694Z,1007.73
2023-03-05T08:10:38.814Z,1007.74
2023-03-05T08:11:38.807Z,1007.74
2023-03-05T08:13:42.856Z,1007.71
2023-03-05T08:14:42.812Z,1007.70
2023-03-05T08:15:42.832Z,1007.74
2023-03-05T08:16:43.022Z,1007.67
2023-03-05T08:17:42.776Z,1007.72
2023-03-05T08:18:42.760Z,1007.63
2023-03-05T08:19:42.749Z,1007.66
2023-03-05T08:20:42.738Z,1007.66
2023-03-05T08:21:42.724Z,1007.67
2023-03-05T08:22:42.734Z,1007.57
2023-03-05T08:23:42.714Z,1007.62
2023-03-05T08:24:42.689Z,1007.64
2023-03-05T08:25:42.748Z,1007.59
2023-03-05T08:26:42.664Z,1007.61
2023-03-05T08:27:42.640Z,1007.58
2023-03-05T08:28:42.639Z,1007.57
2023-03-05T08:29:42.620Z,1007.58
2023-03-05T08:30:42.604Z,1007.57
2023-03-05T08:31:42.678Z,1007.54
2023-03-05T08:32:42.578Z,1007.57
2023-03-05T08:33:42.569Z,1007.50
2023-03-05T08:34:42.555Z,1007.47
2023-03-05T08:35:42.562Z,1007.39
2023-03-05T08:36:42.515Z,1007.42
2023-03-05T08:37:42.515Z,1007.47
2023-03-05T08:38:42.497Z,1007.45
2023-03-05T08:39:42.485Z,1007.35
2023-03-05T08:40:42.469Z,1007.44
2023-03-05T08:41:42.467Z,1007.43
2023-03-05T08:42:42.444Z,1007.38
2023-03-05T08:43:42.435Z,1007.39
2023-03-05T08:44:42.423Z,1007.34
2023-03-05T08:45:42.402Z,1007.34
2023-03-05T08:46:42.443Z,1007.33
2023-03-05T08:47:42.378Z,1007.31
2023-03-05T08:48:42.363Z,1007.29
2023-03-05T08:49:42.350Z,1007.21
2023-03-05T08:50:42.594Z,1007.27
2023-03-05T08:51:42.325Z,1007.19
2023-03-05T08:52:42.313Z,1007.24
2023-03-05T08:53:42.327Z,1007.26
2023-03-05T08:54:42.286Z,1007.27
2023-03-05T08:55:44.174Z,1007.26
2023-03-05T08:56:42.259Z,1007.25
2023-03-05T08:57:42.243Z,1007.26
2023-03-05T08:58:42.241Z,1007.27
2023-03-05T08:59:42.218Z,1007.22
2023-03-05T09:00:42.205Z,1007.28
2023-03-05T09:01:42.213Z,1007.26
2023-03-05T09:02:42.204Z,1007.20
2023-03-05T09:03:43.096Z,1007.23
2023-03-05T09:04:42.152Z,1007.11
2023-03-05T09:05:42.142Z,1007.20
2023-03-05T09:06:42.182Z,1007.30
2023-03-05T09:07:42.114Z,1007.19
2023-03-05T09:08:42.114Z,1007.17
2023-03-05T09:09:42.092Z,1007.18
2023-03-05T09:10:42.079Z,1007.16
2023-03-05T09:11:42.063Z,1007.24
2023-03-05T09:12:42.047Z,1007.12
2023-03-05T09:13:42.041Z,1007.17
2023-03-05T09:14:42.042Z,1007.21
2023-03-05T09:15:42.012Z,1007.18
2023-03-05T09:16:42.061Z,1007.22
2023-03-05T09:17:41.993Z,1007.20
2023-03-05T09:18:41.972Z,1007.22
2023-03-05T09:19:41.960Z,1007.21
2023-03-05T09:20:41.946Z,1007.20
2023-03-05T09:21:41.951Z,1007.19
2023-03-05T09:22:41.924Z,1007.14
2023-03-05T09:23:41.914Z,1007.13
2023-03-05T09:24:41.900Z,1007.07
2023-03-05T09:25:41.895Z,1007.05
2023-03-05T09:26:41.872Z,1007.07
2023-03-05T09:27:41.861Z,1007.08
2023-03-05T09:28:41.845Z,1007.05
2023-03-05T09:29:43.133Z,1007.06
2023-03-05T09:30:41.822Z,1007.09
2023-03-05T09:31:41.852Z,1007.05
2023-03-05T09:32:41.854Z,1007.08
2023-03-05T09:33:41.782Z,1007.06
2023-03-05T09:34:41.772Z,1007.03
2023-03-05T09:35:41.785Z,1007.01
2023-03-05T09:36:41.744Z,1007.00
2023-03-05T09:37:41.731Z,1007.01
2023-03-05T09:38:41.716Z,1007.03
2023-03-05T09:39:41.707Z,1006.99
2023-03-05T09:40:41.691Z,1006.97
2023-03-05T09:41:41.686Z,1007.02
2023-03-05T09:42:41.679Z,1007.02
2023-03-05T09:43:41.658Z,1006.92
2023-03-05T09:44:41.644Z,1006.99
2023-03-05T09:45:41.652Z,1007.03
2023-03-05T09:46:41.618Z,1007.03
2023-03-05T09:47:41.603Z,1007.03
2023-03-05T09:48:41.589Z,1007.05
2023-03-05T09:49:41.582Z,1006.97
2023-03-05T09:50:41.574Z,1007.00
2023-03-05T09:51:41.558Z,1006.93
2023-03-05T09:52:41.538Z,1007.01
2023-03-05T09:53:41.527Z,1006.97
2023-03-05T09:54:41.535Z,1006.97
2023-03-05T09:55:41.503Z,1006.93
2023-03-05T09:56:41.493Z,1006.85
2023-03-05T09:57:41.485Z,1006.96
2023-03-05T09:58:41.467Z,1006.87
2023-03-05T09:59:41.458Z,1006.94
2023-03-05T10:00:41.440Z,1006.88
2023-03-05T10:01:41.429Z,1006.89
2023-03-05T10:02:41.460Z,1006.96
2023-03-05T10:03:41.433Z,1006.94
2023-03-05T10:04:41.391Z,1006.84
2023-03-05T10:05:41.383Z,1006.91
2023-03-05T10:06:41.372Z,1006.90
2023-03-05T10:07:41.357Z,1006.84
2023-03-05T10:08:41.342Z,1006.89
2023-03-05T10:09:41.336Z,1006.93
2023-03-05T10:10:41.349Z,1006.89
2023-03-05T10:11:41.305Z,1006.95
2023-03-05T10:12:41.313Z,1006.88
2023-03-05T10:13:41.314Z,1006.90
2023-03-05T10:14:41.288Z,1006.87
2023-03-05T10:15:41.257Z,1006.90
2023-03-05T10:16:41.301Z,1006.89
2023-03-05T10:17:41.252Z,1006.87
2023-03-05T10:18:41.263Z,1006.90
2023-03-05T10:19:41.235Z,1006.88
2023-03-05T10:20:41.208Z,1006.85
2023-03-05T10:21:41.183Z,1006.86
2023-03-05T10:22:41.167Z,1006.82
2023-03-05T10:23:41.157Z,1006.83
2023-03-05T10:24:41.216Z,1006.84
2023-03-05T10:25:41.130Z,1006.80
2023-03-05T10:26:41.124Z,1006.82
2023-03-05T10:27:41.106Z,1006.78
2023-03-05T10:28:41.136Z,1006.79
2023-03-05T10:29:41.088Z,1006.77
2023-03-05T10:30:41.070Z,1006.78
2023-03-05T10:31:41.108Z,1006.76
2023-03-05T10:32:41.112Z,1006.79
2023-03-05T10:33:41.036Z,1006.71
2023-03-05T10:34:41.009Z,1006.75
2023-03-05T10:35:41.108Z,1006.61
2023-03-05T10:36:40.991Z,1006.73
2023-03-05T10:37:40.979Z,1006.64
2023-03-05T10:38:40.965Z,1006.60
2023-03-05T10:39:40.950Z,1006.71
2023-03-05T10:40:40.949Z,1006.67
2023-03-05T10:41:40.925Z,1006.67
2023-03-05T10:42:40.913Z,1006.74
2023-03-05T10:43:40.903Z,1006.73
2023-03-05T10:44:40.904Z,1006.69
2023-03-05T10:45:40.930Z,1006.65
2023-03-05T10:46:40.860Z,1006.59
2023-03-05T10:47:40.850Z,1006.57
2023-03-05T10:48:40.833Z,1006.57
2023-03-05T10:49:40.825Z,1006.60
2023-03-05T10:50:40.830Z,1006.61
2023-03-05T10:51:40.807Z,1006.59
2023-03-05T10:52:40.785Z,1006.64
2023-03-05T10:53:40.773Z,1006.58
2023-03-05T10:54:40.770Z,1006.53
2023-03-05T10:55:40.747Z,1006.59
2023-03-05T10:56:40.735Z,1006.59
2023-03-05T10:57:40.741Z,1006.55
2023-03-05T10:58:40.743Z,1006.56
2023-03-05T10:59:40.699Z,1006.56
2023-03-05T11:00:40.689Z,1006.61
2023-03-05T11:01:40.751Z,1006.59
2023-03-05T11:02:40.686Z,1006.58
2023-03-05T11:03:40.646Z,1006.52
2023-03-05T11:04:40.640Z,1006.53
2023-03-05T11:05:40.621Z,1006.47
2023-03-05T11:06:40.619Z,1006.51
2023-03-05T11:07:40.605Z,1006.54
2023-03-05T11:08:40.592Z,1006.52
2023-03-05T11:09:40.573Z,1006.48
2023-03-05T11:10:40.572Z,1006.52
2023-03-05T11:11:40.547Z,1006.52
2023-03-05T11:12:40.532Z,1006.51
2023-03-05T11:13:40.519Z,1006.54
2023-03-05T11:14:40.502Z,1006.52
2023-03-05T11:15:40.502Z,1006.48
2023-03-05T11:16:40.484Z,1006.46
2023-03-05T11:17:40.467Z,1006.50
2023-03-05T11:18:40.457Z,1006.45
2023-03-05T11:19:40.449Z,1006.41
2023-03-05T11:20:40.437Z,1006.46
2023-03-05T11:21:40.428Z,1006.48
2023-03-05T11:22:40.408Z,1006.40
2023-03-05T11:23:40.405Z,1006.51
2023-03-05T11:24:40.382Z,1006.47
2023-03-05T11:25:40.367Z,1006.47
2023-03-05T11:26:40.357Z,1006.41
2023-03-05T11:27:40.343Z,1006.46
2023-03-05T11:28:40.344Z,1006.40
2023-03-05T11:29:40.339Z,1006.40
2023-03-05T11:30:40.375Z,1006.42
2023-03-05T11:31:40.292Z,1006.43
2023-03-05T11:32:40.309Z,1006.41
2023-03-05T11:33:40.269Z,1006.38
2023-03-05T11:34:40.255Z,1006.38
2023-03-05T11:35:40.308Z,1006.43
2023-03-05T11:36:40.228Z,1006.37
2023-03-05T11:37:40.218Z,1006.35
2023-03-05T11:38:40.209Z,1006.35
2023-03-05T11:39:40.203Z,1006.38
2023-03-05T11:40:40.180Z,1006.38
2023-03-05T11:41:40.171Z,1006.40
2023-03-05T11:42:40.164Z,1006.32
2023-03-05T11:43:40.153Z,1006.35
2023-03-05T11:44:40.132Z,1006.39
2023-03-05T11:45:40.134Z,1006.40
2023-03-05T11:46:40.189Z,1006.37
2023-03-05T11:47:40.094Z,1006.34
2023-03-05T11:48:40.085Z,1006.36
2023-03-05T11:49:40.073Z,1006.31
2023-03-05T11:50:40.059Z,1006.34
2023-03-05T11:51:40.047Z,1006.30
2023-03-05T11:52:40.041Z,1006.28
2023-03-05T11:53:40.022Z,1006.30
2023-03-05T11:54:40.009Z,1006.28
2023-03-05T11:55:40.001Z,1006.23
2023-03-05T11:56:39.991Z,1006.29
2023-03-05T11:57:39.975Z,1006.26
2023-03-05T11:58:39.970Z,1006.24
2023-03-05T11:59:39.956Z,1006.26
2023-03-05T12:00:39.939Z,1006.17
2023-03-05T12:01:39.928Z,1006.17
2023-03-05T12:02:39.928Z,1006.16
2023-03-05T12:03:39.915Z,1006.09
2023-03-05T12:04:39.893Z,1006.08
2023-03-05T12:05:39.882Z,1006.11
2023-03-05T12:06:39.867Z,1006.01
2023-03-05T12:07:39.859Z,1005.98
2023-03-05T12:08:39.840Z,1006.05
2023-03-05T12:09:39.832Z,1005.99
2023-03-05T12:10:39.820Z,1005.98
2023-03-05T12:11:39.809Z,1005.95
2023-03-05T12:12:39.790Z,1005.96
2023-03-05T12:13:41.907Z,1005.91
2023-03-05T12:14:39.779Z,1005.90
2023-03-05T12:15:39.760Z,1005.87
2023-03-05T12:16:39.745Z,1005.89
2023-03-05T12:17:39.891Z,1005.87
2023-03-05T12:18:39.718Z,1005.83
2023-03-05T12:19:39.712Z,1005.85
2023-03-05T12:20:39.842Z,1005.86
2023-03-05T12:21:39.687Z,1005.82
2023-03-05T12:22:39.798Z,1005.77